Wednesday, October 17, 2018, 12:16 PM EDT
Back to Local

KPWM, Portland International Jetport

Location: Portland, ME, United States Lat: 43.65
Local Time: 12:16 PM EDT (16:16 GMT) Lon: -70.3
Time Zone: US/Eastern Elev: 75 ft

Show me the last for .
Show Decoded

2018-10-17 11:51 METAR KPWM 171551Z 22010G16KT 10SM FEW060 FEW100 12/03 A2975 RMK AO2 PRESFR
                 SLP074 T01170033 =
2018-10-17 10:51 METAR KPWM 171451Z 24010G17KT 10SM SCT060 BKN065 08/03 A2980 RMK AO2 SLP089
                 T00830028 58020 =
2018-10-17 09:51 METAR KPWM 171351Z 21008G16KT 10SM BKN060 OVC065 08/03 A2982 RMK AO2 SLP099 SUN
                 DMLY VSBL T00780028 =
2018-10-17 08:51 METAR KPWM 171251Z 23005KT 10SM FEW070 OVC085 07/03 A2984 RMK AO2 SLP105
                 T00670028 =
2018-10-17 07:51 METAR KPWM 171151Z 21006KT 10SM FEW065 OVC095 06/02 A2985 RMK AO2 SLP110
                 T00610017 10061 20039 56019 =
2018-10-17 06:51 METAR KPWM 171051Z 25005KT 10SM BKN095 OVC100 06/02 A2987 RMK AO2 SLP114
                 T00610017 =
2018-10-17 05:51 METAR KPWM 170951Z 24005KT 10SM BKN100 OVC150 05/01 A2989 RMK AO2 SLP122
                 T00500011 =
2018-10-17 04:51 METAR KPWM 170851Z 23006KT 10SM SCT200 05/01 A2991 RMK AO2 SLP129 T00500011
                 56012 =
2018-10-17 03:51 METAR KPWM 170751Z AUTO 23003KT 10SM CLR 04/01 A2992 RMK AO2 SLP131 T00440011 =
2018-10-17 02:51 METAR KPWM 170651Z AUTO 00000KT 10SM CLR 05/01 A2993 RMK AO2 SLP135 T00500006 =
2018-10-17 01:51 METAR KPWM 170551Z AUTO 00000KT 10SM CLR 04/01 A2995 RMK AO2 SLP141 T00440011
                 10072 20039 58010 =
2018-10-16 23:51 METAR KPWM 170351Z 23005KT 10SM CLR 06/01 A2997 RMK AO2 SLP150 LAST T00560011 =
2018-10-16 22:51 METAR KPWM 170251Z 23007KT 10SM CLR 06/01 A2998 RMK AO2 SLP151 T00560006 53007 =
2018-10-16 21:51 METAR KPWM 170151Z 23005KT 10SM CLR 06/01 A2996 RMK AO2 SLP146 T00560006 =
2018-10-16 20:51 METAR KPWM 170051Z 00000KT 10SM CLR 07/01 A2996 RMK AO2 SLP146 T00670006 =
2018-10-16 19:51 METAR KPWM 162351Z 00000KT 10SM CLR 07/01 A2996 RMK AO2 SLP144 T00720011 10139
                 20072 51012 =
2018-10-16 18:51 METAR KPWM 162251Z 25006KT 10SM CLR 10/M01 A2995 RMK AO2 SLP142 T01001006 =
2018-10-16 17:51 METAR KPWM 162151Z 26010KT 10SM FEW050 12/M02 A2994 RMK AO2 SLP137 T01171022 =
2018-10-16 16:51 METAR KPWM 162051Z 26010KT 10SM FEW050 13/M02 A2992 RMK AO2 SLP132 T01281022
                 53003 =
2018-10-16 15:51 METAR KPWM 161951Z 27012G21KT 10SM FEW050 13/M02 A2991 RMK AO2 SLP128 T01331022
                 =
2018-10-16 14:51 METAR KPWM 161851Z 27013G20KT 10SM FEW050 13/M02 A2991 RMK AO2 SLP129 T01331017
                 =
2018-10-16 13:51 METAR KPWM 161751Z 27014G20KT 10SM FEW055 FEW150 13/M01 A2991 RMK AO2 SLP129
                 T01331011 10133 20072 58007 =
2018-10-16 12:51 METAR KPWM 161651Z 29013G18KT 10SM FEW055 13/M01 A2993 RMK AO2 SLP133 T01281011
                 =

Support USWX by starting your Amazon purchase here.